sensor_id;sensor_type;location;lat;lon;timestamp;P1;durP1;ratioP1;P2;durP2;ratioP2
52494;SDS011;38405;53.212;5.660;2022-11-20T00:01:08;21.65;;;12.18;;
52494;SDS011;38405;53.212;5.660;2022-11-20T00:03:39;21.02;;;12.43;;
52494;SDS011;38405;53.212;5.660;2022-11-20T00:06:07;21.50;;;12.20;;
52494;SDS011;38405;53.212;5.660;2022-11-20T00:08:34;17.83;;;10.70;;
52494;SDS011;38405;53.212;5.660;2022-11-20T00:11:04;20.00;;;12.10;;
52494;SDS011;38405;53.212;5.660;2022-11-20T00:13:30;20.83;;;12.23;;
52494;SDS011;38405;53.212;5.660;2022-11-20T00:15:57;24.90;;;14.02;;
52494;SDS011;38405;53.212;5.660;2022-11-20T00:18:24;24.55;;;12.45;;
52494;SDS011;38405;53.212;5.660;2022-11-20T00:20:49;20.38;;;12.63;;
52494;SDS011;38405;53.212;5.660;2022-11-20T00:23:15;20.60;;;12.50;;
52494;SDS011;38405;53.212;5.660;2022-11-20T00:25:41;25.23;;;13.02;;
52494;SDS011;38405;53.212;5.660;2022-11-20T00:28:06;21.80;;;13.05;;
52494;SDS011;38405;53.212;5.660;2022-11-20T00:30:32;37.55;;;22.27;;
52494;SDS011;38405;53.212;5.660;2022-11-20T00:32:57;27.50;;;17.70;;
52494;SDS011;38405;53.212;5.660;2022-11-20T00:35:23;20.27;;;12.73;;
52494;SDS011;38405;53.212;5.660;2022-11-20T00:37:49;19.88;;;12.65;;
52494;SDS011;38405;53.212;5.660;2022-11-20T00:40:15;19.27;;;12.07;;
52494;SDS011;38405;53.212;5.660;2022-11-20T00:42:40;18.65;;;12.18;;
52494;SDS011;38405;53.212;5.660;2022-11-20T00:45:06;18.65;;;11.90;;
52494;SDS011;38405;53.212;5.660;2022-11-20T00:47:32;18.38;;;11.32;;
52494;SDS011;38405;53.212;5.660;2022-11-20T00:49:57;18.98;;;11.48;;
52494;SDS011;38405;53.212;5.660;2022-11-20T00:52:23;16.10;;;10.65;;
52494;SDS011;38405;53.212;5.660;2022-11-20T00:54:48;16.90;;;10.75;;
52494;SDS011;38405;53.212;5.660;2022-11-20T00:57:14;15.48;;;10.50;;
52494;SDS011;38405;53.212;5.660;2022-11-20T00:59:39;15.75;;;10.98;;
52494;SDS011;38405;53.212;5.660;2022-11-20T01:02:05;16.38;;;11.10;;
52494;SDS011;38405;53.212;5.660;2022-11-20T01:04:31;20.85;;;11.18;;
52494;SDS011;38405;53.212;5.660;2022-11-20T01:06:56;17.23;;;11.65;;
52494;SDS011;38405;53.212;5.660;2022-11-20T01:09:22;19.60;;;11.77;;
52494;SDS011;38405;53.212;5.660;2022-11-20T01:11:47;19.92;;;12.38;;
52494;SDS011;38405;53.212;5.660;2022-11-20T01:14:14;17.58;;;11.93;;
52494;SDS011;38405;53.212;5.660;2022-11-20T01:16:46;21.15;;;11.88;;
52494;SDS011;38405;53.212;5.660;2022-11-20T01:19:17;22.58;;;13.10;;
52494;SDS011;38405;53.212;5.660;2022-11-20T01:21:45;21.48;;;12.75;;
52494;SDS011;38405;53.212;5.660;2022-11-20T01:24:14;22.90;;;12.77;;
52494;SDS011;38405;53.212;5.660;2022-11-20T01:26:43;16.63;;;12.32;;
52494;SDS011;38405;53.212;5.660;2022-11-20T01:29:12;21.00;;;12.40;;
52494;SDS011;38405;53.212;5.660;2022-11-20T01:31:39;20.35;;;12.27;;
52494;SDS011;38405;53.212;5.660;2022-11-20T01:34:07;21.35;;;12.20;;
52494;SDS011;38405;53.212;5.660;2022-11-20T01:36:38;20.73;;;11.85;;
52494;SDS011;38405;53.212;5.660;2022-11-20T01:39:12;18.77;;;12.65;;
52494;SDS011;38405;53.212;5.660;2022-11-20T01:41:42;20.40;;;13.13;;
52494;SDS011;38405;53.212;5.660;2022-11-20T01:47:12;22.58;;;13.38;;
52494;SDS011;38405;53.212;5.660;2022-11-20T01:49:42;22.27;;;13.05;;
52494;SDS011;38405;53.212;5.660;2022-11-20T01:52:22;20.95;;;13.15;;
52494;SDS011;38405;53.212;5.660;2022-11-20T01:57:32;19.58;;;12.10;;
52494;SDS011;38405;53.212;5.660;2022-11-20T02:00:05;21.90;;;12.60;;
52494;SDS011;38405;53.212;5.660;2022-11-20T02:02:36;20.65;;;13.63;;
52494;SDS011;38405;53.212;5.660;2022-11-20T02:05:09;20.67;;;13.82;;
52494;SDS011;38405;53.212;5.660;2022-11-20T02:07:41;21.95;;;14.40;;
52494;SDS011;38405;53.212;5.660;2022-11-20T02:10:08;30.70;;;15.93;;
52494;SDS011;38405;53.212;5.660;2022-11-20T02:12:33;27.92;;;17.85;;
52494;SDS011;38405;53.212;5.660;2022-11-20T02:15:17;19.90;;;13.15;;
52494;SDS011;38405;53.212;5.660;2022-11-20T02:17:43;17.58;;;11.98;;
52494;SDS011;38405;53.212;5.660;2022-11-20T02:20:11;19.10;;;11.98;;
52494;SDS011;38405;53.212;5.660;2022-11-20T02:25:35;18.63;;;11.35;;
52494;SDS011;38405;53.212;5.660;2022-11-20T02:28:03;19.05;;;11.18;;
52494;SDS011;38405;53.212;5.660;2022-11-20T02:30:30;21.52;;;11.73;;
52494;SDS011;38405;53.212;5.660;2022-11-20T02:32:55;20.13;;;11.45;;
52494;SDS011;38405;53.212;5.660;2022-11-20T02:37:48;20.05;;;12.50;;
52494;SDS011;38405;53.212;5.660;2022-11-20T02:40:20;19.13;;;12.27;;
52494;SDS011;38405;53.212;5.660;2022-11-20T02:42:46;20.00;;;12.35;;
52494;SDS011;38405;53.212;5.660;2022-11-20T02:45:12;19.98;;;11.88;;
52494;SDS011;38405;53.212;5.660;2022-11-20T02:47:41;17.15;;;10.88;;
52494;SDS011;38405;53.212;5.660;2022-11-20T02:50:09;18.88;;;12.25;;
52494;SDS011;38405;53.212;5.660;2022-11-20T02:52:35;19.20;;;12.88;;
52494;SDS011;38405;53.212;5.660;2022-11-20T02:55:01;21.10;;;12.60;;
52494;SDS011;38405;53.212;5.660;2022-11-20T02:57:26;19.27;;;12.25;;
52494;SDS011;38405;53.212;5.660;2022-11-20T02:59:53;19.10;;;11.60;;
52494;SDS011;38405;53.212;5.660;2022-11-20T03:02:18;20.35;;;12.05;;
52494;SDS011;38405;53.212;5.660;2022-11-20T03:04:44;20.48;;;12.43;;
52494;SDS011;38405;53.212;5.660;2022-11-20T03:07:10;20.40;;;12.15;;
52494;SDS011;38405;53.212;5.660;2022-11-20T03:09:35;20.10;;;12.52;;
52494;SDS011;38405;53.212;5.660;2022-11-20T03:12:01;21.85;;;12.35;;
52494;SDS011;38405;53.212;5.660;2022-11-20T03:14:26;18.85;;;12.38;;
52494;SDS011;38405;53.212;5.660;2022-11-20T03:16:52;17.38;;;11.60;;
52494;SDS011;38405;53.212;5.660;2022-11-20T03:19:18;17.85;;;11.88;;
52494;SDS011;38405;53.212;5.660;2022-11-20T03:21:43;17.50;;;12.20;;
52494;SDS011;38405;53.212;5.660;2022-11-20T03:24:09;19.98;;;12.65;;
52494;SDS011;38405;53.212;5.660;2022-11-20T03:26:38;18.52;;;12.32;;
52494;SDS011;38405;53.212;5.660;2022-11-20T03:29:04;21.98;;;12.35;;
52494;SDS011;38405;53.212;5.660;2022-11-20T03:31:31;19.15;;;12.75;;
52494;SDS011;38405;53.212;5.660;2022-11-20T03:34:02;18.83;;;12.00;;
52494;SDS011;38405;53.212;5.660;2022-11-20T03:36:28;20.63;;;12.35;;
52494;SDS011;38405;53.212;5.660;2022-11-20T03:38:55;19.90;;;12.32;;
52494;SDS011;38405;53.212;5.660;2022-11-20T03:41:26;20.88;;;12.15;;
52494;SDS011;38405;53.212;5.660;2022-11-20T03:44:03;21.02;;;12.68;;
52494;SDS011;38405;53.212;5.660;2022-11-20T03:46:30;20.92;;;12.20;;
52494;SDS011;38405;53.212;5.660;2022-11-20T03:48:56;19.70;;;12.98;;
52494;SDS011;38405;53.212;5.660;2022-11-20T03:51:25;19.15;;;11.52;;
52494;SDS011;38405;53.212;5.660;2022-11-20T03:53:53;19.80;;;12.65;;
52494;SDS011;38405;53.212;5.660;2022-11-20T03:56:31;18.73;;;11.63;;
52494;SDS011;38405;53.212;5.660;2022-11-20T03:58:59;19.05;;;11.98;;
52494;SDS011;38405;53.212;5.660;2022-11-20T04:01:27;18.52;;;11.82;;
52494;SDS011;38405;53.212;5.660;2022-11-20T04:03:55;19.88;;;11.95;;
52494;SDS011;38405;53.212;5.660;2022-11-20T04:06:22;23.02;;;11.65;;
52494;SDS011;38405;53.212;5.660;2022-11-20T04:08:50;17.13;;;11.38;;
52494;SDS011;38405;53.212;5.660;2022-11-20T04:11:20;17.52;;;12.10;;
52494;SDS011;38405;53.212;5.660;2022-11-20T04:13:51;17.20;;;11.63;;
52494;SDS011;38405;53.212;5.660;2022-11-20T04:16:19;22.58;;;12.75;;
52494;SDS011;38405;53.212;5.660;2022-11-20T04:18:45;18.98;;;11.68;;
52494;SDS011;38405;53.212;5.660;2022-11-20T04:21:21;19.08;;;12.40;;
52494;SDS011;38405;53.212;5.660;2022-11-20T04:23:47;18.98;;;12.45;;
52494;SDS011;38405;53.212;5.660;2022-11-20T04:26:14;19.58;;;12.35;;
52494;SDS011;38405;53.212;5.660;2022-11-20T04:28:40;20.55;;;12.77;;
52494;SDS011;38405;53.212;5.660;2022-11-20T04:31:06;20.20;;;12.57;;
52494;SDS011;38405;53.212;5.660;2022-11-20T04:33:34;26.85;;;12.23;;
52494;SDS011;38405;53.212;5.660;2022-11-20T04:36:09;17.23;;;11.75;;
52494;SDS011;38405;53.212;5.660;2022-11-20T04:38:37;20.70;;;11.80;;
52494;SDS011;38405;53.212;5.660;2022-11-20T04:41:04;23.05;;;12.85;;
52494;SDS011;38405;53.212;5.660;2022-11-20T04:43:31;18.95;;;11.48;;
52494;SDS011;38405;53.212;5.660;2022-11-20T04:46:00;18.05;;;11.80;;
52494;SDS011;38405;53.212;5.660;2022-11-20T04:48:27;18.10;;;11.50;;
52494;SDS011;38405;53.212;5.660;2022-11-20T04:50:53;19.90;;;12.35;;
52494;SDS011;38405;53.212;5.660;2022-11-20T04:53:19;17.73;;;11.90;;
52494;SDS011;38405;53.212;5.660;2022-11-20T04:55:46;21.92;;;12.10;;
52494;SDS011;38405;53.212;5.660;2022-11-20T04:58:12;20.00;;;12.30;;
52494;SDS011;38405;53.212;5.660;2022-11-20T05:00:38;20.02;;;12.10;;
52494;SDS011;38405;53.212;5.660;2022-11-20T05:03:06;19.70;;;11.85;;
52494;SDS011;38405;53.212;5.660;2022-11-20T05:05:33;21.85;;;12.40;;
52494;SDS011;38405;53.212;5.660;2022-11-20T05:07:59;15.85;;;10.88;;
52494;SDS011;38405;53.212;5.660;2022-11-20T05:10:25;15.10;;;10.18;;
52494;SDS011;38405;53.212;5.660;2022-11-20T05:12:51;18.40;;;11.30;;
52494;SDS011;38405;53.212;5.660;2022-11-20T05:15:17;16.50;;;11.07;;
52494;SDS011;38405;53.212;5.660;2022-11-20T05:17:49;17.80;;;11.40;;
52494;SDS011;38405;53.212;5.660;2022-11-20T05:22:46;16.83;;;11.35;;
52494;SDS011;38405;53.212;5.660;2022-11-20T05:25:11;21.95;;;13.23;;
52494;SDS011;38405;53.212;5.660;2022-11-20T05:27:39;20.35;;;12.35;;
52494;SDS011;38405;53.212;5.660;2022-11-20T05:30:05;18.08;;;12.25;;
52494;SDS011;38405;53.212;5.660;2022-11-20T05:32:31;23.38;;;12.20;;
52494;SDS011;38405;53.212;5.660;2022-11-20T05:34:57;17.55;;;11.73;;
52494;SDS011;38405;53.212;5.660;2022-11-20T05:37:23;20.52;;;12.43;;
52494;SDS011;38405;53.212;5.660;2022-11-20T05:39:48;18.98;;;11.82;;
52494;SDS011;38405;53.212;5.660;2022-11-20T05:42:14;21.88;;;12.95;;
52494;SDS011;38405;53.212;5.660;2022-11-20T05:44:55;21.77;;;13.00;;
52494;SDS011;38405;53.212;5.660;2022-11-20T05:47:21;21.75;;;11.90;;
52494;SDS011;38405;53.212;5.660;2022-11-20T05:49:46;22.00;;;12.63;;
52494;SDS011;38405;53.212;5.660;2022-11-20T05:52:12;23.27;;;13.73;;
52494;SDS011;38405;53.212;5.660;2022-11-20T05:54:38;18.42;;;11.48;;
52494;SDS011;38405;53.212;5.660;2022-11-20T05:57:03;21.00;;;12.65;;
52494;SDS011;38405;53.212;5.660;2022-11-20T05:59:30;20.20;;;12.60;;
52494;SDS011;38405;53.212;5.660;2022-11-20T06:01:55;20.08;;;12.98;;
52494;SDS011;38405;53.212;5.660;2022-11-20T06:04:21;19.02;;;12.27;;
52494;SDS011;38405;53.212;5.660;2022-11-20T06:06:47;23.92;;;12.40;;
52494;SDS011;38405;53.212;5.660;2022-11-20T06:09:15;20.13;;;11.68;;
52494;SDS011;38405;53.212;5.660;2022-11-20T06:11:46;19.50;;;11.40;;
52494;SDS011;38405;53.212;5.660;2022-11-20T06:14:12;23.25;;;11.80;;
52494;SDS011;38405;53.212;5.660;2022-11-20T06:16:38;17.80;;;11.07;;
52494;SDS011;38405;53.212;5.660;2022-11-20T06:19:03;20.65;;;12.60;;
52494;SDS011;38405;53.212;5.660;2022-11-20T06:21:29;22.13;;;11.73;;
52494;SDS011;38405;53.212;5.660;2022-11-20T06:23:54;20.20;;;11.93;;
52494;SDS011;38405;53.212;5.660;2022-11-20T06:26:22;19.20;;;11.70;;
52494;SDS011;38405;53.212;5.660;2022-11-20T06:28:51;17.27;;;11.52;;
52494;SDS011;38405;53.212;5.660;2022-11-20T06:31:18;22.83;;;11.35;;
52494;SDS011;38405;53.212;5.660;2022-11-20T06:33:45;18.63;;;11.23;;
52494;SDS011;38405;53.212;5.660;2022-11-20T06:36:13;18.58;;;11.77;;
52494;SDS011;38405;53.212;5.660;2022-11-20T06:38:40;23.10;;;11.57;;
52494;SDS011;38405;53.212;5.660;2022-11-20T06:41:06;17.50;;;10.70;;
52494;SDS011;38405;53.212;5.660;2022-11-20T06:43:35;17.13;;;11.23;;
52494;SDS011;38405;53.212;5.660;2022-11-20T06:46:01;19.90;;;11.15;;
52494;SDS011;38405;53.212;5.660;2022-11-20T06:48:27;18.30;;;11.57;;
52494;SDS011;38405;53.212;5.660;2022-11-20T06:50:53;16.77;;;11.20;;
52494;SDS011;38405;53.212;5.660;2022-11-20T06:53:18;17.92;;;11.23;;
52494;SDS011;38405;53.212;5.660;2022-11-20T06:55:45;21.05;;;12.68;;
52494;SDS011;38405;53.212;5.660;2022-11-20T06:58:14;20.60;;;12.27;;
52494;SDS011;38405;53.212;5.660;2022-11-20T07:00:41;18.83;;;12.68;;
52494;SDS011;38405;53.212;5.660;2022-11-20T07:03:07;18.58;;;12.40;;
52494;SDS011;38405;53.212;5.660;2022-11-20T07:05:34;22.88;;;12.10;;
52494;SDS011;38405;53.212;5.660;2022-11-20T07:08:00;19.30;;;12.82;;
52494;SDS011;38405;53.212;5.660;2022-11-20T07:10:27;19.85;;;11.85;;
52494;SDS011;38405;53.212;5.660;2022-11-20T07:12:53;18.75;;;12.43;;
52494;SDS011;38405;53.212;5.660;2022-11-20T07:15:20;15.77;;;10.95;;
52494;SDS011;38405;53.212;5.660;2022-11-20T07:17:46;18.38;;;12.07;;
52494;SDS011;38405;53.212;5.660;2022-11-20T07:20:15;22.23;;;12.35;;
52494;SDS011;38405;53.212;5.660;2022-11-20T07:22:44;22.77;;;12.82;;
52494;SDS011;38405;53.212;5.660;2022-11-20T07:25:10;18.52;;;12.40;;
52494;SDS011;38405;53.212;5.660;2022-11-20T07:27:35;20.30;;;12.18;;
52494;SDS011;38405;53.212;5.660;2022-11-20T07:30:02;20.80;;;13.13;;
52494;SDS011;38405;53.212;5.660;2022-11-20T07:32:28;19.00;;;12.13;;
52494;SDS011;38405;53.212;5.660;2022-11-20T07:34:54;22.50;;;13.88;;
52494;SDS011;38405;53.212;5.660;2022-11-20T07:37:20;18.02;;;11.50;;
52494;SDS011;38405;53.212;5.660;2022-11-20T07:39:45;19.15;;;11.80;;
52494;SDS011;38405;53.212;5.660;2022-11-20T07:42:11;19.80;;;12.50;;
52494;SDS011;38405;53.212;5.660;2022-11-20T07:44:37;21.45;;;13.68;;
52494;SDS011;38405;53.212;5.660;2022-11-20T07:47:03;20.50;;;12.45;;
52494;SDS011;38405;53.212;5.660;2022-11-20T07:49:29;19.63;;;12.82;;
52494;SDS011;38405;53.212;5.660;2022-11-20T07:51:55;22.25;;;12.88;;
52494;SDS011;38405;53.212;5.660;2022-11-20T07:54:24;23.60;;;12.88;;
52494;SDS011;38405;53.212;5.660;2022-11-20T07:56:49;20.60;;;13.05;;
52494;SDS011;38405;53.212;5.660;2022-11-20T07:59:18;23.42;;;13.68;;
52494;SDS011;38405;53.212;5.660;2022-11-20T08:01:44;20.60;;;12.85;;
52494;SDS011;38405;53.212;5.660;2022-11-20T08:04:09;21.92;;;14.50;;
52494;SDS011;38405;53.212;5.660;2022-11-20T08:06:36;24.27;;;14.65;;
52494;SDS011;38405;53.212;5.660;2022-11-20T08:09:02;24.65;;;14.80;;
52494;SDS011;38405;53.212;5.660;2022-11-20T08:11:28;27.30;;;15.07;;
52494;SDS011;38405;53.212;5.660;2022-11-20T08:14:12;23.08;;;14.48;;
52494;SDS011;38405;53.212;5.660;2022-11-20T08:16:45;21.15;;;14.27;;
52494;SDS011;38405;53.212;5.660;2022-11-20T08:19:12;24.48;;;15.23;;
52494;SDS011;38405;53.212;5.660;2022-11-20T08:21:39;24.60;;;14.20;;
52494;SDS011;38405;53.212;5.660;2022-11-20T08:24:05;24.15;;;15.05;;
52494;SDS011;38405;53.212;5.660;2022-11-20T08:26:31;21.67;;;13.65;;
52494;SDS011;38405;53.212;5.660;2022-11-20T08:28:57;21.75;;;13.70;;
52494;SDS011;38405;53.212;5.660;2022-11-20T08:31:24;18.67;;;13.40;;
52494;SDS011;38405;53.212;5.660;2022-11-20T08:33:50;20.77;;;13.82;;
52494;SDS011;38405;53.212;5.660;2022-11-20T08:36:16;21.27;;;13.50;;
52494;SDS011;38405;53.212;5.660;2022-11-20T08:38:46;18.35;;;12.70;;
52494;SDS011;38405;53.212;5.660;2022-11-20T08:41:16;21.58;;;13.38;;
52494;SDS011;38405;53.212;5.660;2022-11-20T08:43:56;20.58;;;12.75;;
52494;SDS011;38405;53.212;5.660;2022-11-20T08:46:24;19.80;;;13.13;;
52494;SDS011;38405;53.212;5.660;2022-11-20T08:48:52;18.20;;;12.65;;
52494;SDS011;38405;53.212;5.660;2022-11-20T08:51:18;21.13;;;12.68;;
52494;SDS011;38405;53.212;5.660;2022-11-20T08:53:45;18.10;;;13.00;;
52494;SDS011;38405;53.212;5.660;2022-11-20T08:56:10;23.30;;;12.45;;
52494;SDS011;38405;53.212;5.660;2022-11-20T08:58:38;17.52;;;12.48;;
52494;SDS011;38405;53.212;5.660;2022-11-20T09:01:04;16.63;;;12.25;;
52494;SDS011;38405;53.212;5.660;2022-11-20T09:03:30;20.73;;;12.65;;
52494;SDS011;38405;53.212;5.660;2022-11-20T09:05:59;16.27;;;11.80;;
52494;SDS011;38405;53.212;5.660;2022-11-20T09:08:26;16.80;;;11.75;;
52494;SDS011;38405;53.212;5.660;2022-11-20T09:10:53;21.45;;;11.98;;
52494;SDS011;38405;53.212;5.660;2022-11-20T09:13:23;20.63;;;11.63;;
52494;SDS011;38405;53.212;5.660;2022-11-20T09:16:08;18.67;;;11.90;;
52494;SDS011;38405;53.212;5.660;2022-11-20T09:18:34;16.00;;;11.15;;
52494;SDS011;38405;53.212;5.660;2022-11-20T09:21:05;30.58;;;11.43;;
52494;SDS011;38405;53.212;5.660;2022-11-20T09:23:34;14.82;;;11.13;;
52494;SDS011;38405;53.212;5.660;2022-11-20T09:26:04;14.95;;;10.60;;
52494;SDS011;38405;53.212;5.660;2022-11-20T09:28:31;14.30;;;10.43;;
52494;SDS011;38405;53.212;5.660;2022-11-20T09:30:58;16.33;;;11.05;;
52494;SDS011;38405;53.212;5.660;2022-11-20T09:33:25;18.13;;;10.65;;
52494;SDS011;38405;53.212;5.660;2022-11-20T09:35:51;18.02;;;11.27;;
52494;SDS011;38405;53.212;5.660;2022-11-20T09:38:17;15.48;;;11.43;;
52494;SDS011;38405;53.212;5.660;2022-11-20T09:40:52;16.92;;;12.27;;
52494;SDS011;38405;53.212;5.660;2022-11-20T09:43:22;16.20;;;11.35;;
52494;SDS011;38405;53.212;5.660;2022-11-20T09:49:02;15.45;;;11.43;;
52494;SDS011;38405;53.212;5.660;2022-11-20T09:54:17;15.13;;;10.52;;
52494;SDS011;38405;53.212;5.660;2022-11-20T09:56:46;15.18;;;10.25;;
52494;SDS011;38405;53.212;5.660;2022-11-20T09:59:36;14.00;;;10.48;;
52494;SDS011;38405;53.212;5.660;2022-11-20T10:02:15;15.85;;;11.07;;
52494;SDS011;38405;53.212;5.660;2022-11-20T10:04:43;14.30;;;10.73;;
52494;SDS011;38405;53.212;5.660;2022-11-20T10:07:24;15.90;;;11.07;;
52494;SDS011;38405;53.212;5.660;2022-11-20T10:09:56;14.07;;;10.23;;
52494;SDS011;38405;53.212;5.660;2022-11-20T10:12:27;15.25;;;10.70;;
52494;SDS011;38405;53.212;5.660;2022-11-20T10:15:27;15.57;;;11.45;;
52494;SDS011;38405;53.212;5.660;2022-11-20T10:21:18;16.05;;;11.00;;
52494;SDS011;38405;53.212;5.660;2022-11-20T10:23:59;14.07;;;10.45;;
52494;SDS011;38405;53.212;5.660;2022-11-20T10:26:55;19.30;;;11.07;;
52494;SDS011;38405;53.212;5.660;2022-11-20T10:29:33;13.88;;;10.38;;
52494;SDS011;38405;53.212;5.660;2022-11-20T10:32:04;15.48;;;11.98;;
52494;SDS011;38405;53.212;5.660;2022-11-20T10:34:58;16.73;;;11.43;;
52494;SDS011;38405;53.212;5.660;2022-11-20T10:37:28;16.45;;;11.93;;
52494;SDS011;38405;53.212;5.660;2022-11-20T10:42:47;16.95;;;10.95;;
52494;SDS011;38405;53.212;5.660;2022-11-20T10:47:53;15.88;;;10.85;;
52494;SDS011;38405;53.212;5.660;2022-11-20T10:50:42;15.05;;;11.38;;
52494;SDS011;38405;53.212;5.660;2022-11-20T10:56:31;15.80;;;11.40;;
52494;SDS011;38405;53.212;5.660;2022-11-20T10:59:04;14.68;;;11.05;;
52494;SDS011;38405;53.212;5.660;2022-11-20T11:01:57;16.42;;;10.90;;
52494;SDS011;38405;53.212;5.660;2022-11-20T11:07:10;17.95;;;11.50;;
52494;SDS011;38405;53.212;5.660;2022-11-20T11:09:46;16.60;;;11.18;;
52494;SDS011;38405;53.212;5.660;2022-11-20T11:12:14;17.05;;;11.38;;
52494;SDS011;38405;53.212;5.660;2022-11-20T11:14:44;16.00;;;11.40;;
52494;SDS011;38405;53.212;5.660;2022-11-20T11:17:30;16.77;;;10.75;;
52494;SDS011;38405;53.212;5.660;2022-11-20T11:22:26;17.40;;;12.27;;
52494;SDS011;38405;53.212;5.660;2022-11-20T11:24:54;16.88;;;12.15;;
52494;SDS011;38405;53.212;5.660;2022-11-20T11:27:20;20.17;;;11.77;;
52494;SDS011;38405;53.212;5.660;2022-11-20T11:29:46;14.95;;;10.57;;
52494;SDS011;38405;53.212;5.660;2022-11-20T11:32:17;15.70;;;10.07;;
52494;SDS011;38405;53.212;5.660;2022-11-20T11:34:58;17.27;;;10.93;;
52494;SDS011;38405;53.212;5.660;2022-11-20T11:37:32;13.55;;;10.77;;
52494;SDS011;38405;53.212;5.660;2022-11-20T11:40:03;13.00;;;10.15;;
52494;SDS011;38405;53.212;5.660;2022-11-20T11:42:30;12.95;;;9.45;;
52494;SDS011;38405;53.212;5.660;2022-11-20T11:44:57;13.05;;;9.52;;
52494;SDS011;38405;53.212;5.660;2022-11-20T11:47:42;12.05;;;8.98;;
52494;SDS011;38405;53.212;5.660;2022-11-20T11:55:23;10.75;;;8.30;;
52494;SDS011;38405;53.212;5.660;2022-11-20T11:58:06;12.85;;;8.63;;
52494;SDS011;38405;53.212;5.660;2022-11-20T12:00:59;11.77;;;8.90;;
52494;SDS011;38405;53.212;5.660;2022-11-20T12:03:35;12.20;;;8.30;;
52494;SDS011;38405;53.212;5.660;2022-11-20T12:06:13;11.20;;;8.40;;
52494;SDS011;38405;53.212;5.660;2022-11-20T12:13:58;12.27;;;9.20;;
52494;SDS011;38405;53.212;5.660;2022-11-20T12:16:30;14.00;;;9.48;;
52494;SDS011;38405;53.212;5.660;2022-11-20T12:19:01;12.85;;;8.90;;
52494;SDS011;38405;53.212;5.660;2022-11-20T12:21:30;12.43;;;8.77;;
52494;SDS011;38405;53.212;5.660;2022-11-20T12:30:00;11.90;;;8.82;;
52494;SDS011;38405;53.212;5.660;2022-11-20T12:32:29;10.18;;;7.90;;
52494;SDS011;38405;53.212;5.660;2022-11-20T12:58:50;12.35;;;7.45;;
52494;SDS011;38405;53.212;5.660;2022-11-20T13:07:05;10.50;;;7.80;;
52494;SDS011;38405;53.212;5.660;2022-11-20T13:09:36;10.35;;;8.10;;
52494;SDS011;38405;53.212;5.660;2022-11-20T13:12:17;11.90;;;7.93;;
52494;SDS011;38405;53.212;5.660;2022-11-20T13:18:10;10.48;;;7.60;;
52494;SDS011;38405;53.212;5.660;2022-11-20T13:20:41;10.27;;;7.05;;
52494;SDS011;38405;53.212;5.660;2022-11-20T13:23:22;12.13;;;8.27;;
52494;SDS011;38405;53.212;5.660;2022-11-20T13:26:02;11.13;;;7.78;;
52494;SDS011;38405;53.212;5.660;2022-11-20T13:28:29;11.20;;;8.02;;
52494;SDS011;38405;53.212;5.660;2022-11-20T13:30:55;11.02;;;8.05;;
52494;SDS011;38405;53.212;5.660;2022-11-20T13:33:27;11.80;;;7.97;;
52494;SDS011;38405;53.212;5.660;2022-11-20T13:38:46;11.27;;;7.85;;
52494;SDS011;38405;53.212;5.660;2022-11-20T13:41:30;10.25;;;8.02;;
52494;SDS011;38405;53.212;5.660;2022-11-20T13:44:46;13.40;;;8.57;;
52494;SDS011;38405;53.212;5.660;2022-11-20T13:46:50;10.65;;;8.10;;
52494;SDS011;38405;53.212;5.660;2022-11-20T13:49:37;11.23;;;8.32;;
52494;SDS011;38405;53.212;5.660;2022-11-20T13:55:11;10.35;;;7.93;;
52494;SDS011;38405;53.212;5.660;2022-11-20T14:00:55;11.57;;;8.27;;
52494;SDS011;38405;53.212;5.660;2022-11-20T14:03:22;13.73;;;8.57;;
52494;SDS011;38405;53.212;5.660;2022-11-20T14:05:56;13.90;;;8.60;;
52494;SDS011;38405;53.212;5.660;2022-11-20T14:08:31;12.52;;;8.90;;
52494;SDS011;38405;53.212;5.660;2022-11-20T14:11:15;12.65;;;9.15;;
52494;SDS011;38405;53.212;5.660;2022-11-20T14:13:58;12.85;;;9.25;;
52494;SDS011;38405;53.212;5.660;2022-11-20T14:16:38;12.75;;;8.95;;
52494;SDS011;38405;53.212;5.660;2022-11-20T14:19:25;12.90;;;8.90;;
52494;SDS011;38405;53.212;5.660;2022-11-20T14:22:09;12.02;;;8.80;;
52494;SDS011;38405;53.212;5.660;2022-11-20T14:24:49;11.63;;;8.35;;
52494;SDS011;38405;53.212;5.660;2022-11-20T14:27:43;12.93;;;9.20;;
52494;SDS011;38405;53.212;5.660;2022-11-20T14:30:16;12.63;;;9.07;;
52494;SDS011;38405;53.212;5.660;2022-11-20T14:32:48;13.52;;;8.68;;
52494;SDS011;38405;53.212;5.660;2022-11-20T14:35:57;12.75;;;9.35;;
52494;SDS011;38405;53.212;5.660;2022-11-20T14:38:15;13.05;;;9.27;;
52494;SDS011;38405;53.212;5.660;2022-11-20T14:40:43;15.13;;;9.50;;
52494;SDS011;38405;53.212;5.660;2022-11-20T14:45:48;17.35;;;8.82;;
52494;SDS011;38405;53.212;5.660;2022-11-20T14:48:38;12.75;;;8.93;;
52494;SDS011;38405;53.212;5.660;2022-11-20T14:51:11;14.77;;;9.20;;
52494;SDS011;38405;53.212;5.660;2022-11-20T14:53:56;13.23;;;9.43;;
52494;SDS011;38405;53.212;5.660;2022-11-20T14:56:32;13.95;;;10.05;;
52494;SDS011;38405;53.212;5.660;2022-11-20T14:58:58;12.48;;;9.25;;
52494;SDS011;38405;53.212;5.660;2022-11-20T15:01:27;12.63;;;9.68;;
52494;SDS011;38405;53.212;5.660;2022-11-20T15:04:01;13.68;;;9.95;;
52494;SDS011;38405;53.212;5.660;2022-11-20T15:06:31;15.63;;;10.90;;
52494;SDS011;38405;53.212;5.660;2022-11-20T15:08:57;15.05;;;11.25;;
52494;SDS011;38405;53.212;5.660;2022-11-20T15:11:36;13.60;;;9.90;;
52494;SDS011;38405;53.212;5.660;2022-11-20T15:14:02;18.67;;;12.40;;
52494;SDS011;38405;53.212;5.660;2022-11-20T15:16:32;16.40;;;11.52;;
52494;SDS011;38405;53.212;5.660;2022-11-20T15:18:58;14.40;;;10.23;;
52494;SDS011;38405;53.212;5.660;2022-11-20T15:21:25;15.38;;;9.93;;
52494;SDS011;38405;53.212;5.660;2022-11-20T15:23:50;14.77;;;10.15;;
52494;SDS011;38405;53.212;5.660;2022-11-20T15:26:21;15.55;;;10.57;;
52494;SDS011;38405;53.212;5.660;2022-11-20T15:28:52;15.05;;;9.93;;
52494;SDS011;38405;53.212;5.660;2022-11-20T15:31:19;13.95;;;10.32;;
52494;SDS011;38405;53.212;5.660;2022-11-20T15:33:47;13.68;;;9.98;;
52494;SDS011;38405;53.212;5.660;2022-11-20T15:36:16;17.33;;;12.75;;
52494;SDS011;38405;53.212;5.660;2022-11-20T15:38:42;16.83;;;11.73;;
52494;SDS011;38405;53.212;5.660;2022-11-20T15:41:07;12.48;;;9.55;;
52494;SDS011;38405;53.212;5.660;2022-11-20T15:43:56;11.88;;;8.73;;
52494;SDS011;38405;53.212;5.660;2022-11-20T15:46:29;12.60;;;8.90;;
52494;SDS011;38405;53.212;5.660;2022-11-20T15:49:03;14.23;;;8.52;;
52494;SDS011;38405;53.212;5.660;2022-11-20T15:51:37;15.45;;;9.95;;
52494;SDS011;38405;53.212;5.660;2022-11-20T15:54:14;11.95;;;9.20;;
52494;SDS011;38405;53.212;5.660;2022-11-20T15:56:45;12.48;;;8.30;;
52494;SDS011;38405;53.212;5.660;2022-11-20T15:59:11;10.63;;;8.15;;
52494;SDS011;38405;53.212;5.660;2022-11-20T16:01:39;13.38;;;9.85;;
52494;SDS011;38405;53.212;5.660;2022-11-20T16:04:08;11.77;;;9.05;;
52494;SDS011;38405;53.212;5.660;2022-11-20T16:06:55;11.93;;;8.55;;
52494;SDS011;38405;53.212;5.660;2022-11-20T16:09:20;12.45;;;8.43;;
52494;SDS011;38405;53.212;5.660;2022-11-20T16:11:46;10.60;;;8.10;;
52494;SDS011;38405;53.212;5.660;2022-11-20T16:14:11;11.35;;;8.43;;
52494;SDS011;38405;53.212;5.660;2022-11-20T16:16:55;11.30;;;8.70;;